createdAt,value
2023-05-06T00:00:44.367Z,81.30
2023-05-06T00:01:45.279Z,75.30
2023-05-06T00:02:46.147Z,67.00
2023-05-06T00:03:47.092Z,67.80
2023-05-06T00:04:47.607Z,70.80
2023-05-06T00:05:48.315Z,71.20
2023-05-06T00:06:49.280Z,72.50
2023-05-06T00:07:49.980Z,72.70
2023-05-06T00:08:50.785Z,74.20
2023-05-06T00:09:51.435Z,75.00
2023-05-06T00:10:52.133Z,78.00
2023-05-06T00:11:53.287Z,77.70
2023-05-06T00:12:53.502Z,77.20
2023-05-06T00:13:54.184Z,83.90
2023-05-06T00:14:54.884Z,83.40
2023-05-06T00:15:55.610Z,79.20
2023-05-06T00:16:56.777Z,75.70
2023-05-06T00:17:57.021Z,80.60
2023-05-06T00:18:57.645Z,73.40
2023-05-06T00:19:58.349Z,70.80
2023-05-06T00:20:59.058Z,68.10
2023-05-06T00:21:59.782Z,70.80
2023-05-06T00:23:00.487Z,75.20
2023-05-06T00:24:01.291Z,71.50
2023-05-06T00:25:01.927Z,72.40
2023-05-06T00:26:02.622Z,75.20
2023-05-06T00:27:03.791Z,75.10
2023-05-06T00:28:03.987Z,75.80
2023-05-06T00:29:04.702Z,69.60
2023-05-06T00:30:05.402Z,66.10
2023-05-06T00:31:06.093Z,73.70
2023-05-06T00:32:07.376Z,71.70
2023-05-06T00:33:07.717Z,75.60
2023-05-06T00:34:08.434Z,77.70
2023-05-06T00:35:09.383Z,75.90
2023-05-06T00:36:09.686Z,77.80
2023-05-06T00:37:10.784Z,76.80
2023-05-06T00:38:10.984Z,74.20
2023-05-06T00:39:11.708Z,72.40
2023-05-06T00:40:12.412Z,76.30
2023-05-06T00:41:13.097Z,76.50
2023-05-06T00:42:14.286Z,74.30
2023-05-06T00:43:14.487Z,74.60
2023-05-06T00:44:15.196Z,73.30
2023-05-06T00:45:15.910Z,70.30
2023-05-06T00:46:16.626Z,68.70
2023-05-06T00:47:17.794Z,71.10
2023-05-06T00:48:18.052Z,67.60
2023-05-06T00:49:18.694Z,64.90
2023-05-06T00:50:19.409Z,69.90
2023-05-06T00:51:20.103Z,70.70
2023-05-06T00:52:21.305Z,68.70
2023-05-06T00:53:21.511Z,70.40
2023-05-06T00:54:22.302Z,72.10
2023-05-06T00:55:22.927Z,70.70
2023-05-06T00:56:23.655Z,75.10
2023-05-06T00:57:24.790Z,73.00
2023-05-06T00:58:24.986Z,76.50
2023-05-06T00:59:25.694Z,76.30
2023-05-06T01:00:26.479Z,75.00
2023-05-06T01:01:27.176Z,73.50
2023-05-06T01:02:39.571Z,71.10
2023-05-06T01:03:29.469Z,72.20
2023-05-06T01:04:29.187Z,73.40
2023-05-06T01:05:29.865Z,77.10
2023-05-06T01:06:30.563Z,76.50
2023-05-06T01:07:31.309Z,78.10
2023-05-06T01:08:32.023Z,79.50
2023-05-06T01:09:32.847Z,77.60
2023-05-06T01:10:33.469Z,79.80
2023-05-06T01:11:34.180Z,78.40
2023-05-06T01:12:35.311Z,78.20
2023-05-06T01:13:35.500Z,76.80
2023-05-06T01:14:36.208Z,77.40
2023-05-06T01:15:36.903Z,69.20
2023-05-06T01:16:37.691Z,75.60
2023-05-06T01:17:38.818Z,75.20
2023-05-06T01:18:39.020Z,73.30
2023-05-06T01:19:39.646Z,76.40
2023-05-06T01:20:40.354Z,74.40
2023-05-06T01:21:41.051Z,76.40
2023-05-06T01:22:41.802Z,76.30
2023-05-06T01:23:42.517Z,77.90
2023-05-06T01:24:43.223Z,71.90
2023-05-06T01:25:43.902Z,63.40
2023-05-06T01:26:44.605Z,63.80
2023-05-06T01:27:45.791Z,60.80
2023-05-06T01:28:46.001Z,57.90
2023-05-06T01:29:46.697Z,57.50
2023-05-06T01:30:47.412Z,55.20
2023-05-06T01:31:48.106Z,56.10
2023-05-06T01:32:49.327Z,55.90
2023-05-06T01:33:49.515Z,61.80
2023-05-06T01:34:50.158Z,60.50
2023-05-06T01:35:50.861Z,66.50
2023-05-06T01:36:51.567Z,57.80
2023-05-06T01:37:52.292Z,64.70
2023-05-06T01:38:52.997Z,67.10
2023-05-06T01:39:53.789Z,67.80
2023-05-06T01:40:54.424Z,69.10
2023-05-06T01:41:55.120Z,71.80
2023-05-06T01:42:56.302Z,74.30
2023-05-06T01:43:56.495Z,73.80
2023-05-06T01:44:57.198Z,75.00
2023-05-06T01:45:57.919Z,73.20
2023-05-06T01:46:58.605Z,72.50
2023-05-06T01:47:59.829Z,72.00
2023-05-06T01:49:00.029Z,70.90
2023-05-06T01:50:00.662Z,64.10
2023-05-06T01:51:01.358Z,62.60
2023-05-06T01:52:02.057Z,62.00
2023-05-06T01:53:02.815Z,57.60
2023-05-06T01:54:03.497Z,55.50
2023-05-06T01:55:04.304Z,56.00
2023-05-06T01:56:04.928Z,56.20
2023-05-06T01:57:05.688Z,54.80
2023-05-06T01:58:06.795Z,52.30
2023-05-06T01:59:07.002Z,57.10
2023-05-06T02:00:07.704Z,54.00
2023-05-06T02:01:08.407Z,56.80
2023-05-06T02:02:09.252Z,58.30
2023-05-06T02:03:10.436Z,64.90
2023-05-06T02:04:10.631Z,63.20
2023-05-06T02:05:11.439Z,61.00
2023-05-06T02:06:12.151Z,70.50
2023-05-06T02:07:12.843Z,72.80
2023-05-06T02:08:13.799Z,73.20
2023-05-06T02:09:14.499Z,67.30
2023-05-06T02:10:15.295Z,72.10
2023-05-06T02:11:15.929Z,67.10
2023-05-06T02:12:16.635Z,65.70
2023-05-06T02:13:17.850Z,64.60
2023-05-06T02:14:18.003Z,64.20
2023-05-06T02:15:18.707Z,62.40
2023-05-06T02:16:19.431Z,62.20
2023-05-06T02:17:20.112Z,65.00
2023-05-06T02:18:21.299Z,66.50
2023-05-06T02:19:21.525Z,67.60
2023-05-06T02:20:22.154Z,68.70
2023-05-06T02:21:22.856Z,68.00
2023-05-06T02:22:23.561Z,68.80
2023-05-06T02:23:24.299Z,69.60
2023-05-06T02:24:25.010Z,70.80
2023-05-06T02:25:25.831Z,71.20
2023-05-06T02:26:26.466Z,71.10
2023-05-06T02:27:27.169Z,70.70
2023-05-06T02:28:28.300Z,69.00
2023-05-06T02:29:28.505Z,70.80
2023-05-06T02:30:29.215Z,74.90
2023-05-06T02:31:29.951Z,75.80
2023-05-06T02:32:30.637Z,78.30
2023-05-06T02:33:31.798Z,78.10
2023-05-06T02:34:32.024Z,78.00
2023-05-06T02:35:32.680Z,78.30
2023-05-06T02:36:33.417Z,79.00
2023-05-06T02:37:34.114Z,79.20
2023-05-06T02:38:34.805Z,78.60
2023-05-06T02:39:35.520Z,80.10
2023-05-06T02:40:36.260Z,79.60
2023-05-06T02:41:36.930Z,81.50
2023-05-06T02:42:37.769Z,80.30
2023-05-06T02:43:38.800Z,81.70
2023-05-06T02:44:39.505Z,81.60
2023-05-06T02:45:40.278Z,79.70
2023-05-06T02:46:40.930Z,78.20
2023-05-06T02:47:41.687Z,80.60
2023-05-06T02:48:42.868Z,79.60
2023-05-06T02:49:43.040Z,82.00
2023-05-06T02:50:43.702Z,82.50
2023-05-06T02:51:44.379Z,82.40
2023-05-06T02:52:45.082Z,80.20
2023-05-06T02:53:45.826Z,67.30
2023-05-06T02:54:46.527Z,66.50
2023-05-06T02:55:47.323Z,66.50
2023-05-06T02:56:47.958Z,68.30
2023-05-06T02:57:48.671Z,66.10
2023-05-06T02:58:49.802Z,68.50
2023-05-06T02:59:50.004Z,67.00
2023-05-06T03:00:50.760Z,66.60
2023-05-06T03:01:51.459Z,66.90
2023-05-06T03:02:52.176Z,67.60
2023-05-06T03:03:52.872Z,64.20
2023-05-06T03:04:53.602Z,66.60
2023-05-06T03:05:54.225Z,66.40
2023-05-06T03:06:54.934Z,66.70
2023-05-06T03:07:55.643Z,65.80
2023-05-06T03:08:56.806Z,64.60
2023-05-06T03:09:57.018Z,65.70
2023-05-06T03:10:57.875Z,64.40
2023-05-06T03:11:58.499Z,64.00
2023-05-06T03:12:59.246Z,63.70
2023-05-06T03:14:00.307Z,65.70
2023-05-06T03:15:00.532Z,62.90
2023-05-06T03:16:01.252Z,62.80
2023-05-06T03:17:01.979Z,61.80
2023-05-06T03:18:02.726Z,61.30
2023-05-06T03:19:03.820Z,61.00
2023-05-06T03:20:04.037Z,62.60
2023-05-06T03:21:04.702Z,62.20
2023-05-06T03:22:05.404Z,61.40
2023-05-06T03:23:06.102Z,59.80
2023-05-06T03:24:07.316Z,58.80
2023-05-06T03:25:07.713Z,59.70
2023-05-06T03:26:08.166Z,60.90
2023-05-06T03:27:08.820Z,61.80
2023-05-06T03:28:09.497Z,62.20
2023-05-06T03:29:10.315Z,63.00
2023-05-06T03:30:11.009Z,60.30
2023-05-06T03:31:11.735Z,62.30
2023-05-06T03:32:12.423Z,63.10
2023-05-06T03:33:13.125Z,62.50
2023-05-06T03:34:14.325Z,63.00
2023-05-06T03:35:14.547Z,62.00
2023-05-06T03:36:15.180Z,60.40
2023-05-06T03:37:15.885Z,61.60
2023-05-06T03:38:16.588Z,61.00
2023-05-06T03:39:17.307Z,60.10
2023-05-06T03:40:18.031Z,61.20
2023-05-06T03:41:18.808Z,60.00
2023-05-06T03:42:19.436Z,60.30
2023-05-06T03:43:20.140Z,59.30
2023-05-06T03:44:21.331Z,58.50
2023-05-06T03:45:21.504Z,57.70
2023-05-06T03:46:22.279Z,59.30
2023-05-06T03:47:22.941Z,58.40
2023-05-06T03:48:23.634Z,59.20
2023-05-06T03:49:24.829Z,58.30
2023-05-06T03:50:25.038Z,58.90
2023-05-06T03:51:25.662Z,60.20
2023-05-06T03:52:26.374Z,57.70
2023-05-06T03:53:27.070Z,60.20
2023-05-06T03:54:27.803Z,61.40
2023-05-06T03:55:28.508Z,61.00
2023-05-06T03:56:29.372Z,59.50
2023-05-06T03:57:30.006Z,61.60
2023-05-06T03:58:30.701Z,61.10
2023-05-06T03:59:31.803Z,59.80
2023-05-06T04:00:32.002Z,59.80
2023-05-06T04:01:32.712Z,63.50
2023-05-06T04:02:33.472Z,61.60
2023-05-06T04:03:34.186Z,60.40
2023-05-06T04:04:35.306Z,62.10
2023-05-06T04:05:35.520Z,61.60
2023-05-06T04:06:36.173Z,64.20
2023-05-06T04:07:36.880Z,64.50
2023-05-06T04:08:37.579Z,64.40
2023-05-06T04:09:38.308Z,63.40
2023-05-06T04:10:39.009Z,65.50
2023-05-06T04:11:39.733Z,61.90
2023-05-06T04:12:40.428Z,64.50
2023-05-06T04:13:41.125Z,63.00
2023-05-06T04:14:42.304Z,63.60
2023-05-06T04:15:42.509Z,62.20
2023-05-06T04:16:43.352Z,61.30
2023-05-06T04:17:44.101Z,62.50
2023-05-06T04:18:44.802Z,63.80
2023-05-06T04:19:45.802Z,61.80
2023-05-06T04:20:46.025Z,58.70
2023-05-06T04:21:46.664Z,57.70
2023-05-06T04:22:47.353Z,59.20
2023-05-06T04:23:48.059Z,59.00
2023-05-06T04:24:48.810Z,59.90
2023-05-06T04:25:49.540Z,58.60
2023-05-06T04:26:50.383Z,58.90
2023-05-06T04:27:51.015Z,58.70
2023-05-06T04:28:51.702Z,59.20
2023-05-06T04:29:52.817Z,61.90
2023-05-06T04:30:53.008Z,59.60
2023-05-06T04:31:53.730Z,58.30
2023-05-06T04:32:54.439Z,62.30
2023-05-06T04:33:55.128Z,60.30
2023-05-06T04:34:56.306Z,61.20
2023-05-06T04:35:56.525Z,59.10
2023-05-06T04:36:57.152Z,59.90
2023-05-06T04:37:57.862Z,61.00
2023-05-06T04:38:58.568Z,61.90
2023-05-06T04:39:59.319Z,61.00
2023-05-06T04:41:00.011Z,57.50
2023-05-06T04:42:00.959Z,58.00
2023-05-06T04:43:01.611Z,56.30
2023-05-06T04:44:02.317Z,55.80
2023-05-06T04:45:03.673Z,55.90
2023-05-06T04:46:03.905Z,57.00
2023-05-06T04:47:04.580Z,56.50
2023-05-06T04:48:05.309Z,55.30
2023-05-06T04:49:05.999Z,57.90
2023-05-06T04:50:06.835Z,57.10
2023-05-06T04:51:07.585Z,54.50
2023-05-06T04:52:08.233Z,56.50
2023-05-06T04:53:08.958Z,55.20
2023-05-06T04:54:09.668Z,56.40
2023-05-06T04:55:11.034Z,55.20
2023-05-06T04:56:10.877Z,54.10
2023-05-06T04:57:11.614Z,53.60
2023-05-06T04:58:12.279Z,53.40
2023-05-06T04:59:12.983Z,50.90
2023-05-06T05:00:13.815Z,52.00
2023-05-06T05:01:14.549Z,48.80
2023-05-06T05:02:15.262Z,47.80
2023-05-06T05:03:16.078Z,47.10
2023-05-06T05:04:16.779Z,50.90
2023-05-06T05:05:17.822Z,49.40
2023-05-06T05:06:18.037Z,48.70
2023-05-06T05:07:18.702Z,48.70
2023-05-06T05:08:19.419Z,50.00
2023-05-06T05:09:20.124Z,48.70
2023-05-06T05:10:21.326Z,46.90
2023-05-06T05:11:21.519Z,46.90
2023-05-06T05:12:22.366Z,48.30
2023-05-06T05:13:23.008Z,50.40
2023-05-06T05:14:23.690Z,46.80
2023-05-06T05:15:24.832Z,46.20
2023-05-06T05:16:25.070Z,46.90
2023-05-06T05:17:25.785Z,45.10
2023-05-06T05:18:26.457Z,43.00
2023-05-06T05:19:27.159Z,45.00
2023-05-06T05:20:28.320Z,42.20
2023-05-06T05:21:28.541Z,42.00
2023-05-06T05:22:29.172Z,42.70
2023-05-06T05:23:29.865Z,41.70
2023-05-06T05:24:30.576Z,40.70
2023-05-06T05:25:31.316Z,39.40
2023-05-06T05:26:32.016Z,38.60
2023-05-06T05:27:32.823Z,38.40
2023-05-06T05:28:33.445Z,38.40
2023-05-06T05:29:34.148Z,40.00
2023-05-06T05:30:35.325Z,40.20
2023-05-06T05:31:35.567Z,40.20
2023-05-06T05:32:36.333Z,39.10
2023-05-06T05:33:37.038Z,40.70
2023-05-06T05:34:37.732Z,38.00
2023-05-06T05:35:38.818Z,35.60
2023-05-06T05:36:39.041Z,32.80
2023-05-06T05:37:39.666Z,33.80
2023-05-06T05:38:40.370Z,32.90
2023-05-06T05:39:41.074Z,31.90
2023-05-06T05:40:41.858Z,31.90
2023-05-06T05:41:42.518Z,29.60
2023-05-06T05:42:43.310Z,27.40
2023-05-06T05:43:43.945Z,25.50
2023-05-06T05:44:44.646Z,24.20
2023-05-06T05:45:45.848Z,23.30
2023-05-06T05:46:46.087Z,21.90
2023-05-06T05:47:46.898Z,20.60
2023-05-06T05:48:47.550Z,20.80
2023-05-06T05:49:48.263Z,18.40
2023-05-06T05:50:49.324Z,19.60
2023-05-06T05:51:49.542Z,18.10
2023-05-06T05:52:50.163Z,18.40
2023-05-06T05:53:50.859Z,18.30
2023-05-06T05:54:51.580Z,17.60
2023-05-06T05:55:52.337Z,16.30
2023-05-06T05:56:53.026Z,15.80
2023-05-06T05:57:53.929Z,14.70
2023-05-06T05:58:54.556Z,15.50
2023-05-06T05:59:55.250Z,14.60
2023-05-06T06:00:56.321Z,14.20
2023-05-06T06:01:56.519Z,14.10
2023-05-06T06:02:57.344Z,13.60
2023-05-06T06:03:58.323Z,14.00
2023-05-06T06:04:59.130Z,14.70
2023-05-06T06:05:59.827Z,13.60
2023-05-06T06:07:00.548Z,14.30
2023-05-06T06:08:03.646Z,14.50
2023-05-06T06:09:02.120Z,14.60
2023-05-06T06:10:02.814Z,14.10
2023-05-06T06:11:03.820Z,14.30
2023-05-06T06:12:04.042Z,14.90
2023-05-06T06:13:04.894Z,15.40
2023-05-06T06:14:05.522Z,15.30
2023-05-06T06:15:06.243Z,14.50
2023-05-06T06:16:06.946Z,13.30
2023-05-06T06:17:07.630Z,13.80
2023-05-06T06:18:08.348Z,13.80
2023-05-06T06:19:09.043Z,13.10
2023-05-06T06:20:09.756Z,12.60
2023-05-06T06:21:10.475Z,12.50
2023-05-06T06:22:11.186Z,12.50
2023-05-06T06:23:11.824Z,11.50
2023-05-06T06:24:12.514Z,11.10
2023-05-06T06:25:13.214Z,11.70
2023-05-06T06:26:13.922Z,11.20
2023-05-06T06:27:14.626Z,11.00
2023-05-06T06:28:15.516Z,10.80
2023-05-06T06:29:16.151Z,10.70
2023-05-06T06:30:16.848Z,10.90
2023-05-06T06:31:17.888Z,10.70
2023-05-06T06:32:18.073Z,10.70
2023-05-06T06:33:18.776Z,10.80
2023-05-06T06:34:19.485Z,10.80
2023-05-06T06:35:20.210Z,10.40
2023-05-06T06:36:21.321Z,10.00
2023-05-06T06:37:21.543Z,9.80
2023-05-06T06:38:22.188Z,10.50
2023-05-06T06:39:22.897Z,10.10
2023-05-06T06:40:23.592Z,10.60
2023-05-06T06:41:24.324Z,9.90
2023-05-06T06:42:25.591Z,9.80
2023-05-06T06:43:25.689Z,9.80
2023-05-06T06:44:26.314Z,10.20
2023-05-06T06:45:27.038Z,9.20
2023-05-06T06:46:27.838Z,9.10
2023-05-06T06:47:28.589Z,9.50
2023-05-06T06:48:29.265Z,9.70
2023-05-06T06:49:29.959Z,9.00
2023-05-06T06:50:30.664Z,9.20
2023-05-06T06:51:31.823Z,8.60
2023-05-06T06:52:32.052Z,8.80
2023-05-06T06:53:32.686Z,8.70
2023-05-06T06:54:33.377Z,9.10
2023-05-06T06:55:34.076Z,9.00
2023-05-06T06:56:34.830Z,8.70
2023-05-06T06:57:35.531Z,8.40
2023-05-06T06:58:36.322Z,8.80
2023-05-06T06:59:36.956Z,9.60
2023-05-06T07:00:37.654Z,9.10
2023-05-06T07:01:38.931Z,9.10
2023-05-06T07:02:39.246Z,8.10
2023-05-06T07:03:39.947Z,8.60
2023-05-06T07:04:40.752Z,8.90
2023-05-06T07:05:41.463Z,8.00
2023-05-06T07:06:42.339Z,8.50
2023-05-06T07:07:43.059Z,8.20
2023-05-06T07:08:43.679Z,8.40
2023-05-06T07:09:44.548Z,7.90
2023-05-06T07:10:45.235Z,7.50
2023-05-06T07:11:45.939Z,7.20
2023-05-06T07:12:46.684Z,8.00
2023-05-06T07:13:47.446Z,8.60
2023-05-06T07:14:48.071Z,9.40
2023-05-06T07:15:48.771Z,9.40
2023-05-06T07:16:51.459Z,9.20
2023-05-06T07:17:50.337Z,8.30
2023-05-06T07:18:51.054Z,8.10
2023-05-06T07:19:51.764Z,8.00
2023-05-06T07:20:52.482Z,8.10
2023-05-06T07:21:53.331Z,8.70
2023-05-06T07:22:54.122Z,8.60
2023-05-06T07:23:54.749Z,7.80
2023-05-06T07:24:55.447Z,7.50
2023-05-06T07:25:56.163Z,7.90
2023-05-06T07:26:57.333Z,7.50
2023-05-06T07:27:57.539Z,7.80
2023-05-06T07:28:58.253Z,7.60
2023-05-06T07:29:58.938Z,8.70
2023-05-06T07:30:59.718Z,7.40
2023-05-06T07:32:00.852Z,7.50
2023-05-06T07:33:01.135Z,7.60
2023-05-06T07:34:01.815Z,7.50
2023-05-06T07:35:02.522Z,7.10
2023-05-06T07:36:03.248Z,8.80
2023-05-06T07:37:04.335Z,7.70
2023-05-06T07:38:04.559Z,8.20
2023-05-06T07:39:05.187Z,7.80
2023-05-06T07:40:05.892Z,7.50
2023-05-06T07:41:06.595Z,8.30
2023-05-06T07:42:07.344Z,8.00
2023-05-06T07:43:08.055Z,6.90
2023-05-06T07:44:08.836Z,7.30
2023-05-06T07:45:09.642Z,6.40
2023-05-06T07:46:10.415Z,6.50
2023-05-06T07:47:11.416Z,6.90
2023-05-06T07:48:11.678Z,7.50
2023-05-06T07:49:12.368Z,6.10
2023-05-06T07:50:13.095Z,6.50
2023-05-06T07:51:13.787Z,6.10
2023-05-06T07:52:14.840Z,5.90
2023-05-06T07:53:15.060Z,5.60
2023-05-06T07:54:15.690Z,5.70
2023-05-06T07:55:16.398Z,5.80
2023-05-06T07:56:17.114Z,5.90
2023-05-06T07:57:17.848Z,5.80
2023-05-06T07:58:18.551Z,6.00
2023-05-06T07:59:19.393Z,6.00
2023-05-06T08:00:20.029Z,5.60
2023-05-06T08:01:20.731Z,5.10
2023-05-06T08:02:22.121Z,5.10
2023-05-06T08:03:22.517Z,5.30
2023-05-06T08:04:23.235Z,5.00
2023-05-06T08:05:23.927Z,4.90
2023-05-06T08:06:24.625Z,5.00
2023-05-06T08:07:25.348Z,5.10
2023-05-06T08:08:26.068Z,5.10
2023-05-06T08:09:26.711Z,4.50
2023-05-06T08:10:27.436Z,4.60
2023-05-06T08:11:28.137Z,4.80
2023-05-06T08:12:28.856Z,4.40
2023-05-06T08:13:29.548Z,4.30
2023-05-06T08:14:30.346Z,4.10
2023-05-06T08:15:30.968Z,4.20
2023-05-06T08:16:31.700Z,4.30
2023-05-06T08:17:32.884Z,4.50
2023-05-06T08:18:33.052Z,4.30
2023-05-06T08:19:33.751Z,3.80
2023-05-06T08:20:34.453Z,3.80
2023-05-06T08:21:35.181Z,4.10
2023-05-06T08:22:36.364Z,4.00
2023-05-06T08:23:36.594Z,4.10
2023-05-06T08:24:37.230Z,4.10
2023-05-06T08:25:37.935Z,4.10
2023-05-06T08:26:38.629Z,4.40
2023-05-06T08:27:39.368Z,5.20
2023-05-06T08:28:40.060Z,5.10
2023-05-06T08:29:40.858Z,5.10
2023-05-06T08:30:41.486Z,5.00
2023-05-06T08:31:42.240Z,5.00
2023-05-06T08:32:43.369Z,5.20
2023-05-06T08:33:43.560Z,5.20
2023-05-06T08:34:44.259Z,5.20
2023-05-06T08:35:45.012Z,4.80
2023-05-06T08:36:45.683Z,5.40
2023-05-06T08:37:46.875Z,5.20
2023-05-06T08:38:47.081Z,5.60
2023-05-06T08:39:47.726Z,5.30
2023-05-06T08:40:48.438Z,5.80
2023-05-06T08:41:49.118Z,5.70
2023-05-06T08:42:49.901Z,5.10
2023-05-06T08:43:50.635Z,5.20
2023-05-06T08:44:51.375Z,5.50
2023-05-06T08:45:52.045Z,5.60
2023-05-06T08:46:52.745Z,5.40
2023-05-06T08:47:53.984Z,4.90
2023-05-06T08:48:54.129Z,5.50
2023-05-06T08:49:54.831Z,4.80
2023-05-06T08:50:55.537Z,4.70
2023-05-06T08:51:56.236Z,5.10
2023-05-06T08:52:57.367Z,4.80
2023-05-06T08:53:57.586Z,5.20
2023-05-06T08:54:58.214Z,5.50
2023-05-06T08:55:58.912Z,5.30
2023-05-06T08:56:59.613Z,4.70
2023-05-06T08:58:00.365Z,4.50
2023-05-06T08:59:01.070Z,4.30
2023-05-06T09:00:01.995Z,3.80
2023-05-06T09:01:02.694Z,4.40
2023-05-06T09:02:03.457Z,4.50
2023-05-06T09:03:04.467Z,3.90
2023-05-06T09:04:04.713Z,4.30
2023-05-06T09:05:05.440Z,4.40
2023-05-06T09:06:06.124Z,4.20
2023-05-06T09:07:06.882Z,4.10
2023-05-06T09:08:07.933Z,4.30
2023-05-06T09:09:08.208Z,4.30
2023-05-06T09:10:09.034Z,3.90
2023-05-06T09:11:09.404Z,4.10
2023-05-06T09:12:10.108Z,3.80
2023-05-06T09:13:10.912Z,4.20
2023-05-06T09:14:11.597Z,4.00
2023-05-06T09:15:12.652Z,4.00
2023-05-06T09:16:13.067Z,4.20
2023-05-06T09:17:13.752Z,3.70
2023-05-06T09:18:14.878Z,3.30
2023-05-06T09:19:15.085Z,4.20
2023-05-06T09:20:15.775Z,3.70
2023-05-06T09:21:16.478Z,3.70
2023-05-06T09:22:17.183Z,3.50
2023-05-06T09:23:18.436Z,3.80
2023-05-06T09:24:18.611Z,3.30
2023-05-06T09:25:19.244Z,3.50
2023-05-06T09:26:19.941Z,3.00
2023-05-06T09:27:20.647Z,3.10
2023-05-06T09:28:21.382Z,3.00
2023-05-06T09:29:22.087Z,2.90
2023-05-06T09:30:22.815Z,2.40
2023-05-06T09:31:23.508Z,2.20
2023-05-06T09:32:24.216Z,2.10
2023-05-06T09:33:24.916Z,1.90
2023-05-06T09:34:25.619Z,1.90
2023-05-06T09:35:26.307Z,1.60
2023-05-06T09:36:27.012Z,1.70
2023-05-06T09:37:27.718Z,2.00
2023-05-06T09:38:28.877Z,1.80
2023-05-06T09:39:29.107Z,1.50
2023-05-06T09:40:29.762Z,1.50
2023-05-06T09:41:30.470Z,1.90
2023-05-06T09:42:31.161Z,1.50
2023-05-06T09:43:31.878Z,1.70
2023-05-06T09:44:32.594Z,1.60
2023-05-06T09:45:33.393Z,1.70
2023-05-06T09:46:34.070Z,1.60
2023-05-06T09:47:34.925Z,1.50
2023-05-06T09:48:35.394Z,1.50
2023-05-06T09:49:36.104Z,1.40
2023-05-06T09:50:36.820Z,1.40
2023-05-06T09:51:37.504Z,1.50
2023-05-06T09:52:38.218Z,1.40
2023-05-06T09:53:39.384Z,1.40
2023-05-06T09:54:39.620Z,1.50
2023-05-06T09:55:40.287Z,1.50
2023-05-06T09:56:41.006Z,1.60
2023-05-06T09:57:41.698Z,1.60
2023-05-06T09:58:42.906Z,1.60
2023-05-06T09:59:43.089Z,1.50
2023-05-06T10:00:43.813Z,1.40
2023-05-06T10:01:44.501Z,1.90
2023-05-06T10:02:45.255Z,1.80
2023-05-06T10:03:46.562Z,1.90
2023-05-06T10:04:46.938Z,1.90
2023-05-06T10:05:47.287Z,1.60
2023-05-06T10:06:47.975Z,1.80
2023-05-06T10:07:48.674Z,1.70
2023-05-06T10:08:49.897Z,1.80
2023-05-06T10:09:50.116Z,1.90
2023-05-06T10:10:50.744Z,1.90
2023-05-06T10:11:51.459Z,2.00
2023-05-06T10:12:52.218Z,1.80
2023-05-06T10:13:52.887Z,1.90
2023-05-06T10:14:53.588Z,1.90
2023-05-06T10:15:54.539Z,1.80
2023-05-06T10:16:55.225Z,1.60
2023-05-06T10:17:55.943Z,1.70
2023-05-06T10:18:56.896Z,1.60
2023-05-06T10:19:57.603Z,1.90
2023-05-06T10:20:58.298Z,1.70
2023-05-06T10:21:59.025Z,1.70
2023-05-06T10:22:59.758Z,1.90
2023-05-06T10:24:00.905Z,1.50
2023-05-06T10:25:01.115Z,1.90
2023-05-06T10:26:01.742Z,1.60
2023-05-06T10:27:02.454Z,1.70
2023-05-06T10:28:05.501Z,1.70
2023-05-06T10:29:04.393Z,1.40
2023-05-06T10:30:05.109Z,1.70
2023-05-06T10:31:05.817Z,1.90
2023-05-06T10:32:06.515Z,1.50
2023-05-06T10:33:07.256Z,1.60
2023-05-06T10:34:08.393Z,1.40
2023-05-06T10:35:08.727Z,1.50
2023-05-06T10:36:09.395Z,1.50
2023-05-06T10:37:10.119Z,1.50
2023-05-06T10:38:10.827Z,1.50
2023-05-06T10:39:11.898Z,1.60
2023-05-06T10:40:12.115Z,1.70
2023-05-06T10:41:12.746Z,1.70
2023-05-06T10:42:13.449Z,1.40
2023-05-06T10:43:14.151Z,1.50
2023-05-06T10:44:14.893Z,1.70
2023-05-06T10:45:15.594Z,1.50
2023-05-06T10:46:16.605Z,1.50
2023-05-06T10:47:17.263Z,1.60
2023-05-06T10:48:17.973Z,1.60
2023-05-06T10:49:18.904Z,1.60
2023-05-06T10:50:19.604Z,1.50
2023-05-06T10:51:20.307Z,2.00
2023-05-06T10:52:21.015Z,1.80
2023-05-06T10:53:21.713Z,1.70
2023-05-06T10:54:22.900Z,1.70
2023-05-06T10:55:23.115Z,1.30
2023-05-06T10:56:23.734Z,1.40
2023-05-06T10:57:24.439Z,1.50
2023-05-06T10:58:25.139Z,1.10
2023-05-06T10:59:25.894Z,1.50
2023-05-06T11:00:26.618Z,1.40
2023-05-06T11:01:27.428Z,1.50
2023-05-06T11:02:28.141Z,1.30
2023-05-06T11:03:28.880Z,1.30
2023-05-06T11:04:29.900Z,1.40
2023-05-06T11:05:30.093Z,1.40
2023-05-06T11:06:30.806Z,1.50
2023-05-06T11:07:31.508Z,1.40
2023-05-06T11:08:32.205Z,1.60
2023-05-06T11:09:33.395Z,1.40
2023-05-06T11:10:33.623Z,1.40
2023-05-06T11:11:34.244Z,1.50
2023-05-06T11:12:34.967Z,1.50
2023-05-06T11:13:35.661Z,1.30
2023-05-06T11:14:36.398Z,1.40
2023-05-06T11:15:37.170Z,1.60
2023-05-06T11:16:38.736Z,1.50
2023-05-06T11:17:38.640Z,1.30
2023-05-06T11:18:39.307Z,1.20
2023-05-06T11:19:40.413Z,1.30
2023-05-06T11:20:40.602Z,1.30
2023-05-06T11:21:41.311Z,1.20
2023-05-06T11:22:42.006Z,1.30
2023-05-06T11:23:43.000Z,1.40
2023-05-06T11:24:43.416Z,1.40
2023-05-06T11:25:44.122Z,1.50
2023-05-06T11:26:44.750Z,1.30
2023-05-06T11:27:45.452Z,1.30
2023-05-06T11:28:46.151Z,1.40
2023-05-06T11:29:46.937Z,1.60
2023-05-06T11:30:47.666Z,1.40
2023-05-06T11:31:48.360Z,1.40
2023-05-06T11:32:49.062Z,1.40
2023-05-06T11:33:49.731Z,1.20
2023-05-06T11:34:50.909Z,1.50
2023-05-06T11:35:51.104Z,1.60
2023-05-06T11:36:51.809Z,1.40
2023-05-06T11:37:52.572Z,1.50
2023-05-06T11:38:53.360Z,1.60
2023-05-06T11:39:54.460Z,1.20
2023-05-06T11:40:54.700Z,1.10
2023-05-06T11:41:55.341Z,1.30
2023-05-06T11:42:56.042Z,1.40
2023-05-06T11:43:56.747Z,1.00
2023-05-06T11:44:57.905Z,1.20
2023-05-06T11:45:58.127Z,1.30
2023-05-06T11:46:58.835Z,1.20
2023-05-06T11:47:59.532Z,1.30
2023-05-06T11:49:00.216Z,1.20
2023-05-06T11:50:00.938Z,1.10
2023-05-06T11:51:01.642Z,1.00
2023-05-06T11:52:02.344Z,1.20
2023-05-06T11:53:03.045Z,1.10
2023-05-06T11:54:03.780Z,1.20
2023-05-06T11:55:04.916Z,1.20
2023-05-06T11:56:05.147Z,1.10
2023-05-06T11:57:05.879Z,1.10
2023-05-06T11:58:06.587Z,1.10
2023-05-06T11:59:07.283Z,1.20
2023-05-06T12:00:08.658Z,1.00
2023-05-06T12:01:08.950Z,1.10
2023-05-06T12:02:09.741Z,1.10
2023-05-06T12:03:10.511Z,1.20
2023-05-06T12:04:11.220Z,1.10
2023-05-06T12:05:11.916Z,1.00
2023-05-06T12:06:12.613Z,0.90
2023-05-06T12:07:13.314Z,1.20
2023-05-06T12:08:26.163Z,1.20
2023-05-06T12:09:15.615Z,1.30
2023-05-06T12:10:15.419Z,1.00
2023-05-06T12:11:16.138Z,1.10
2023-05-06T12:12:16.803Z,1.00
2023-05-06T12:13:17.535Z,1.30
2023-05-06T12:14:18.184Z,1.30
2023-05-06T12:15:18.912Z,1.40
2023-05-06T12:16:19.729Z,1.40
2023-05-06T12:17:20.501Z,1.40
2023-05-06T12:18:21.134Z,1.50
2023-05-06T12:19:21.838Z,1.50
2023-05-06T12:20:22.946Z,1.30
2023-05-06T12:21:23.117Z,1.40
2023-05-06T12:22:23.827Z,1.40
2023-05-06T12:23:24.526Z,1.40
2023-05-06T12:24:25.238Z,1.20
2023-05-06T12:25:26.451Z,1.50
2023-05-06T12:26:26.661Z,1.20
2023-05-06T12:27:27.290Z,1.20
2023-05-06T12:28:27.993Z,1.20
2023-05-06T12:29:28.698Z,1.30
2023-05-06T12:30:29.435Z,1.40
2023-05-06T12:31:30.172Z,1.30
2023-05-06T12:32:30.926Z,1.40
2023-05-06T12:33:31.557Z,1.20
2023-05-06T12:34:32.266Z,1.20
2023-05-06T12:35:33.431Z,1.00
2023-05-06T12:36:33.644Z,1.20
2023-05-06T12:37:34.337Z,1.20
2023-05-06T12:38:35.032Z,1.40
2023-05-06T12:39:35.740Z,1.20
2023-05-06T12:40:36.926Z,1.20
2023-05-06T12:41:37.203Z,1.10
2023-05-06T12:42:37.855Z,1.40
2023-05-06T12:43:38.554Z,1.20
2023-05-06T12:44:39.267Z,1.30
2023-05-06T12:45:40.478Z,1.30
2023-05-06T12:46:40.640Z,1.30
2023-05-06T12:47:41.453Z,1.20
2023-05-06T12:48:42.108Z,1.30
2023-05-06T12:49:42.812Z,1.30
2023-05-06T12:50:43.542Z,1.40
2023-05-06T12:51:46.339Z,1.60
2023-05-06T12:52:44.730Z,1.30
2023-05-06T12:53:45.432Z,1.50
2023-05-06T12:54:46.149Z,1.40
2023-05-06T12:55:46.937Z,1.20
2023-05-06T12:56:47.741Z,1.30
2023-05-06T12:57:48.364Z,1.60
2023-05-06T12:58:49.091Z,1.60
2023-05-06T12:59:49.782Z,1.10
2023-05-06T13:00:50.502Z,1.10
2023-05-06T13:01:51.207Z,1.70
2023-05-06T13:02:52.074Z,1.50
2023-05-06T13:03:52.808Z,1.40
2023-05-06T13:04:53.526Z,1.40
2023-05-06T13:05:54.219Z,1.40
2023-05-06T13:06:54.914Z,1.30
2023-05-06T13:07:55.614Z,1.30
2023-05-06T13:08:56.317Z,1.10
2023-05-06T13:09:57.019Z,1.30
2023-05-06T13:10:57.932Z,1.30
2023-05-06T13:11:58.661Z,1.40
2023-05-06T13:12:59.355Z,1.40
2023-05-06T13:14:00.017Z,1.30
2023-05-06T13:15:00.715Z,1.40